Time;durP1;ratioP1;P1;durP2;ratioP2;P2;SDS_P1;SDS_P2;PMS_P1;PMS_P2;Temp;Humidity;BMP_temperature;BMP_pressure;BME280_temperature;BME280_humidity;BME280_pressure;Samples;Min_cycle;Max_cycle;Signal;HPM_P1;HPM_P2
2021/12/03 00:01:27;;;;;;;2.65;0.50;;;;;;;;;;4229848;28;20486;-82
2021/12/03 00:03:34;;;;;;;1.23;0.60;;;;;;;;;;4213133;28;20058;-82
2021/12/03 00:05:48;;;;;;;3.08;0.70;;;;;;;;;;4197113;28;20112;-82
2021/12/03 00:07:54;;;;;;;0.93;0.55;;;;;;;;;;4200912;28;20127;-80
2021/12/03 00:09:57;;;;;;;1.13;0.40;;;;;;;;;;4219753;28;20048;-81
2021/12/03 00:11:59;;;;;;;3.35;0.60;;;;;;;;;;4247205;27;20043;-81
2021/12/03 00:14:01;;;;;;;0.95;0.55;;;;;;;;;;4246931;27;20055;-81
2021/12/03 00:16:03;;;;;;;1.60;0.50;;;;;;;;;;4247480;27;20493;-81
2021/12/03 00:18:05;;;;;;;1.15;0.50;;;;;;;;;;4247012;27;20416;-80
2021/12/03 00:20:09;;;;;;;1.95;0.38;;;;;;;;;;4246970;27;20119;-81
2021/12/03 00:22:11;;;;;;;2.45;0.60;;;;;;;;;;4230550;28;20063;-81
2021/12/03 00:24:13;;;;;;;0.98;0.60;;;;;;;;;;4246361;27;20525;-82
2021/12/03 00:26:14;;;;;;;4.72;0.50;;;;;;;;;;4230268;28;20067;-82
2021/12/03 00:28:15;;;;;;;0.95;0.40;;;;;;;;;;4241424;27;20059;-81
2021/12/03 00:30:18;;;;;;;1.65;0.60;;;;;;;;;;4230373;28;20067;-81
2021/12/03 00:32:19;;;;;;;3.38;0.57;;;;;;;;;;4233578;27;20060;-80
2021/12/03 00:34:20;;;;;;;1.65;0.50;;;;;;;;;;4231996;28;20047;-81
2021/12/03 00:36:23;;;;;;;3.45;0.40;;;;;;;;;;4231459;28;20047;-81
2021/12/03 00:38:25;;;;;;;3.88;0.77;;;;;;;;;;4230357;28;20051;-81
2021/12/03 00:40:29;;;;;;;6.68;0.80;;;;;;;;;;4231789;28;20038;-81
2021/12/03 00:42:32;;;;;;;2.20;0.80;;;;;;;;;;4229536;27;20122;-81
2021/12/03 00:44:34;;;;;;;7.45;0.80;;;;;;;;;;4246305;27;20051;-81
2021/12/03 00:46:35;;;;;;;5.68;0.85;;;;;;;;;;4231995;28;20043;-81
2021/12/03 00:48:38;;;;;;;3.28;0.60;;;;;;;;;;4230378;28;20415;-81
2021/12/03 00:50:40;;;;;;;2.78;0.63;;;;;;;;;;4230490;28;20079;-81
2021/12/03 00:52:43;;;;;;;4.97;0.77;;;;;;;;;;4231241;28;20120;-80
2021/12/03 00:54:44;;;;;;;0.75;0.40;;;;;;;;;;4231381;28;20082;-81
2021/12/03 00:56:46;;;;;;;2.33;1.00;;;;;;;;;;4229659;28;20048;-81
2021/12/03 00:58:47;;;;;;;2.00;0.60;;;;;;;;;;4230372;28;20039;-81
2021/12/03 01:00:50;;;;;;;2.38;0.80;;;;;;;;;;4232203;27;20044;-81
2021/12/03 01:02:55;;;;;;;4.10;0.55;;;;;;;;;;4248181;27;20470;-81
2021/12/03 01:04:57;;;;;;;3.50;0.57;;;;;;;;;;4249013;27;20123;-81
2021/12/03 01:06:59;;;;;;;3.65;0.60;;;;;;;;;;4245862;27;20057;-81
2021/12/03 01:09:01;;;;;;;2.92;0.60;;;;;;;;;;4231752;28;20047;-81
2021/12/03 01:11:04;;;;;;;1.98;0.73;;;;;;;;;;4232008;28;20052;-81
2021/12/03 01:13:06;;;;;;;3.97;0.88;;;;;;;;;;4233249;28;20515;-80
2021/12/03 01:15:09;;;;;;;5.60;2.05;;;;;;;;;;4247676;28;20124;-81
2021/12/03 01:17:11;;;;;;;3.58;0.57;;;;;;;;;;4248905;28;20043;-81
2021/12/03 01:19:15;;;;;;;5.18;0.70;;;;;;;;;;4246638;28;20043;-81
2021/12/03 01:21:16;;;;;;;4.30;0.57;;;;;;;;;;4246223;28;20414;-81
2021/12/03 01:23:17;;;;;;;4.38;0.73;;;;;;;;;;4247622;28;20050;-81
2021/12/03 01:25:18;;;;;;;2.60;0.50;;;;;;;;;;4247260;28;20104;-81
2021/12/03 01:27:21;;;;;;;1.80;1.33;;;;;;;;;;4247273;28;20051;-81
2021/12/03 01:29:23;;;;;;;5.00;1.08;;;;;;;;;;4247081;28;20418;-81
2021/12/03 01:31:24;;;;;;;5.80;1.55;;;;;;;;;;4247229;28;20186;-80
2021/12/03 01:33:26;;;;;;;2.63;0.50;;;;;;;;;;4247413;28;20054;-81
2021/12/03 01:35:27;;;;;;;3.92;1.00;;;;;;;;;;4247247;28;20479;-81
2021/12/03 01:37:28;;;;;;;3.75;0.80;;;;;;;;;;4246403;28;20891;-81
2021/12/03 01:39:31;;;;;;;2.50;0.70;;;;;;;;;;4246253;28;20123;-81
2021/12/03 01:41:33;;;;;;;3.08;0.88;;;;;;;;;;4247231;28;20049;-81
2021/12/03 01:43:35;;;;;;;7.25;0.93;;;;;;;;;;4223265;28;20089;-81
2021/12/03 01:45:39;;;;;;;2.13;0.57;;;;;;;;;;4230114;28;20101;-80
2021/12/03 01:47:47;;;;;;;1.85;0.75;;;;;;;;;;4213914;28;20044;-81
2021/12/03 01:49:49;;;;;;;2.78;1.13;;;;;;;;;;4234776;28;20044;-81
2021/12/03 01:51:50;;;;;;;5.18;0.70;;;;;;;;;;4233711;28;20069;-81
2021/12/03 01:53:52;;;;;;;2.05;0.60;;;;;;;;;;4235575;27;20039;-80
2021/12/03 01:55:56;;;;;;;1.90;0.73;;;;;;;;;;4244269;27;20055;-81
2021/12/03 01:57:58;;;;;;;1.75;0.70;;;;;;;;;;4252372;27;20047;-81
2021/12/03 01:59:59;;;;;;;2.10;0.85;;;;;;;;;;4250486;27;20118;-81
2021/12/03 02:02:02;;;;;;;2.72;0.90;;;;;;;;;;4251997;27;20406;-81
2021/12/03 02:04:03;;;;;;;2.33;0.60;;;;;;;;;;4233460;28;20112;-81
2021/12/03 02:06:06;;;;;;;3.10;0.80;;;;;;;;;;4250770;27;20054;-81
2021/12/03 02:08:08;;;;;;;1.05;0.50;;;;;;;;;;4251805;27;20039;-81
2021/12/03 02:10:09;;;;;;;3.28;0.57;;;;;;;;;;4250675;27;20047;-80
2021/12/03 02:12:10;;;;;;;1.90;0.60;;;;;;;;;;4251467;27;20421;-80
2021/12/03 02:14:13;;;;;;;2.65;0.82;;;;;;;;;;4249279;27;20079;-80
2021/12/03 02:16:17;;;;;;;2.92;1.90;;;;;;;;;;4251769;27;20042;-80
2021/12/03 02:18:18;;;;;;;3.22;0.75;;;;;;;;;;4251977;27;20046;-81
2021/12/03 02:20:19;;;;;;;1.58;0.80;;;;;;;;;;4249425;27;20043;-80
2021/12/03 02:22:20;;;;;;;2.72;0.70;;;;;;;;;;4251308;27;20047;-80
2021/12/03 02:24:23;;;;;;;2.65;0.70;;;;;;;;;;4251854;27;20458;-80
2021/12/03 02:26:30;;;;;;;3.28;1.30;;;;;;;;;;4251382;27;20047;-80
2021/12/03 02:28:32;;;;;;;2.80;0.82;;;;;;;;;;4251558;27;20039;-80
2021/12/03 02:30:33;;;;;;;5.75;0.80;;;;;;;;;;4248710;27;20055;-80
2021/12/03 02:32:36;;;;;;;3.00;0.75;;;;;;;;;;4249727;27;20050;-81
2021/12/03 02:34:37;;;;;;;2.92;0.70;;;;;;;;;;4249343;27;20050;-80
2021/12/03 02:36:38;;;;;;;2.15;0.77;;;;;;;;;;4249576;27;20086;-80
2021/12/03 02:38:39;;;;;;;2.15;0.80;;;;;;;;;;4249658;27;20050;-80
2021/12/03 02:40:42;;;;;;;4.70;1.02;;;;;;;;;;4232741;28;20083;-80
2021/12/03 02:42:43;;;;;;;1.70;0.93;;;;;;;;;;4249656;27;20539;-81
2021/12/03 02:44:45;;;;;;;3.13;0.80;;;;;;;;;;4250572;27;20479;-80
2021/12/03 02:46:47;;;;;;;1.83;0.60;;;;;;;;;;4231532;28;20043;-80
2021/12/03 02:48:49;;;;;;;4.22;0.90;;;;;;;;;;4243782;27;20051;-80
2021/12/03 02:50:51;;;;;;;3.03;0.70;;;;;;;;;;4251379;27;20043;-80
2021/12/03 02:52:52;;;;;;;3.20;0.77;;;;;;;;;;4250577;27;20767;-80
2021/12/03 02:54:55;;;;;;;4.10;0.90;;;;;;;;;;4248944;27;20047;-81
2021/12/03 02:56:56;;;;;;;4.75;0.80;;;;;;;;;;4249494;27;20497;-81
2021/12/03 02:58:57;;;;;;;2.58;1.15;;;;;;;;;;4250999;27;20054;-81
2021/12/03 03:00:58;;;;;;;3.38;0.57;;;;;;;;;;4248944;27;20050;-80
2021/12/03 03:03:00;;;;;;;3.05;0.60;;;;;;;;;;4233488;28;20062;-80
2021/12/03 03:05:02;;;;;;;2.00;1.15;;;;;;;;;;4239892;27;20039;-80
2021/12/03 03:07:03;;;;;;;0.65;0.50;;;;;;;;;;4250037;27;20039;-80
2021/12/03 03:09:08;;;;;;;3.60;0.75;;;;;;;;;;4250515;27;20043;-80
2021/12/03 03:11:09;;;;;;;6.97;0.60;;;;;;;;;;4250678;27;20047;-79
2021/12/03 03:13:12;;;;;;;1.67;0.57;;;;;;;;;;4250595;27;20043;-79
2021/12/03 03:15:13;;;;;;;2.50;0.73;;;;;;;;;;4249185;27;20604;-79
2021/12/03 03:17:15;;;;;;;1.25;0.50;;;;;;;;;;4249418;27;20050;-80
2021/12/03 03:19:19;;;;;;;1.55;0.80;;;;;;;;;;4244565;27;20050;-80
2021/12/03 03:21:21;;;;;;;3.17;0.80;;;;;;;;;;4232722;28;20505;-80
2021/12/03 03:23:23;;;;;;;4.65;1.05;;;;;;;;;;4247036;27;20076;-80
2021/12/03 03:25:25;;;;;;;5.45;1.10;;;;;;;;;;4249123;27;20129;-80
2021/12/03 03:27:27;;;;;;;5.95;1.30;;;;;;;;;;4250694;27;20505;-80
2021/12/03 03:29:28;;;;;;;5.22;1.15;;;;;;;;;;4254182;27;20050;-80
2021/12/03 03:31:29;;;;;;;5.85;1.50;;;;;;;;;;4267180;27;20176;-80
2021/12/03 03:33:31;;;;;;;5.63;1.70;;;;;;;;;;4249170;27;20042;-80
2021/12/03 03:35:32;;;;;;;3.33;1.27;;;;;;;;;;4267031;27;20392;-80
2021/12/03 03:37:34;;;;;;;4.38;1.88;;;;;;;;;;4267662;27;20113;-80
2021/12/03 03:39:36;;;;;;;24.05;5.25;;;;;;;;;;4243443;27;20054;-80
2021/12/03 03:41:38;;;;;;;6.90;2.50;;;;;;;;;;4243259;27;20047;-81
2021/12/03 03:43:41;;;;;;;8.75;2.40;;;;;;;;;;4249573;27;20089;-81
2021/12/03 03:45:43;;;;;;;10.25;2.25;;;;;;;;;;4249351;27;20050;-80
2021/12/03 03:47:44;;;;;;;8.35;2.75;;;;;;;;;;4249667;27;20081;-81
2021/12/03 03:49:46;;;;;;;7.30;2.55;;;;;;;;;;4231499;28;20043;-81
2021/12/03 03:51:47;;;;;;;6.18;2.60;;;;;;;;;;4214341;28;20076;-81
2021/12/03 03:53:49;;;;;;;15.15;3.28;;;;;;;;;;4231050;28;20058;-81
2021/12/03 03:55:52;;;;;;;8.70;3.08;;;;;;;;;;4249032;27;20506;-81
2021/12/03 03:57:55;;;;;;;5.22;3.22;;;;;;;;;;4259422;27;20042;-81
2021/12/03 03:59:57;;;;;;;10.75;3.63;;;;;;;;;;4266755;27;20482;-81
2021/12/03 04:01:59;;;;;;;8.88;3.60;;;;;;;;;;4254660;27;20043;-81
2021/12/03 04:04:00;;;;;;;7.70;4.30;;;;;;;;;;4231153;28;20044;-81
2021/12/03 04:06:02;;;;;;;11.82;4.70;;;;;;;;;;4230724;28;20146;-80
2021/12/03 04:08:04;;;;;;;11.43;4.60;;;;;;;;;;4249058;27;20035;-80
2021/12/03 04:10:06;;;;;;;10.43;4.82;;;;;;;;;;4249304;27;20039;-80
2021/12/03 04:12:08;;;;;;;11.52;4.03;;;;;;;;;;4230927;28;20036;-80
2021/12/03 04:14:10;;;;;;;12.68;5.65;;;;;;;;;;4258359;27;20039;-80
2021/12/03 04:16:11;;;;;;;26.20;5.93;;;;;;;;;;4248317;27;20049;-81
2021/12/03 04:18:13;;;;;;;12.55;6.30;;;;;;;;;;4247587;27;20111;-82
2021/12/03 04:20:16;;;;;;;8.57;4.40;;;;;;;;;;4230764;28;20376;-82
2021/12/03 04:22:23;;;;;;;13.15;6.05;;;;;;;;;;4247674;27;20061;-82
2021/12/03 04:24:25;;;;;;;20.27;6.80;;;;;;;;;;4266750;27;20481;-82
2021/12/03 04:26:27;;;;;;;15.25;6.05;;;;;;;;;;4247437;27;20090;-80
2021/12/03 04:28:29;;;;;;;14.85;6.45;;;;;;;;;;4266139;27;20043;-81
2021/12/03 04:30:31;;;;;;;14.02;6.47;;;;;;;;;;4247428;27;20062;-81
2021/12/03 04:32:34;;;;;;;14.25;6.03;;;;;;;;;;4241404;27;20035;-81
2021/12/03 04:34:36;;;;;;;15.07;6.45;;;;;;;;;;4246172;27;20073;-81
2021/12/03 04:36:37;;;;;;;18.98;6.75;;;;;;;;;;4231475;28;20107;-81
2021/12/03 04:38:39;;;;;;;15.23;6.43;;;;;;;;;;4265478;27;20043;-81
2021/12/03 04:40:41;;;;;;;12.80;6.72;;;;;;;;;;4247705;27;20054;-82
2021/12/03 04:42:42;;;;;;;15.93;7.05;;;;;;;;;;4247928;27;20047;-82
2021/12/03 04:44:44;;;;;;;13.45;5.95;;;;;;;;;;4266780;27;20065;-82
2021/12/03 04:46:48;;;;;;;12.10;5.88;;;;;;;;;;4248483;27;20062;-81
2021/12/03 04:48:49;;;;;;;13.30;6.00;;;;;;;;;;4248124;27;20039;-81
2021/12/03 04:50:52;;;;;;;14.10;5.47;;;;;;;;;;4247195;27;20073;-81
2021/12/03 04:52:55;;;;;;;14.30;6.38;;;;;;;;;;4248399;27;20051;-81
2021/12/03 04:54:56;;;;;;;9.27;5.40;;;;;;;;;;4248019;27;20039;-81
2021/12/03 04:56:57;;;;;;;14.00;6.00;;;;;;;;;;4230996;28;20052;-81
2021/12/03 04:58:58;;;;;;;16.10;6.20;;;;;;;;;;4266217;27;20043;-81
2021/12/03 05:01:00;;;;;;;13.80;6.40;;;;;;;;;;4266027;27;20050;-81
2021/12/03 05:03:02;;;;;;;11.80;6.05;;;;;;;;;;4266097;27;20138;-81
2021/12/03 05:05:05;;;;;;;11.98;5.80;;;;;;;;;;4266626;27;20039;-82
2021/12/03 05:09:12;;;;;;;19.35;6.25;;;;;;;;;;4264311;27;20111;-82
2021/12/03 05:11:13;;;;;;;16.52;6.15;;;;;;;;;;4248502;27;20130;-82
2021/12/03 05:13:16;;;;;;;11.88;5.55;;;;;;;;;;4247814;27;20031;-82
2021/12/03 05:15:18;;;;;;;14.70;6.20;;;;;;;;;;4247703;27;20051;-82
2021/12/03 05:17:20;;;;;;;12.02;5.43;;;;;;;;;;4247708;28;20108;-81
2021/12/03 05:19:22;;;;;;;14.00;5.72;;;;;;;;;;4247563;28;20161;-81
2021/12/03 05:21:23;;;;;;;13.18;5.03;;;;;;;;;;4266276;27;20121;-81
2021/12/03 05:23:25;;;;;;;13.30;5.78;;;;;;;;;;4267690;27;20497;-81
2021/12/03 05:25:26;;;;;;;11.23;5.50;;;;;;;;;;4233112;28;20519;-81
2021/12/03 05:27:29;;;;;;;15.35;5.63;;;;;;;;;;4267820;27;20039;-81
2021/12/03 05:29:30;;;;;;;8.50;5.00;;;;;;;;;;4234443;28;20499;-81
2021/12/03 05:31:31;;;;;;;12.48;5.13;;;;;;;;;;4234124;28;20491;-80
2021/12/03 05:33:33;;;;;;;13.32;5.35;;;;;;;;;;4234095;28;20565;-80
2021/12/03 05:35:35;;;;;;;13.90;4.95;;;;;;;;;;4234987;28;20066;-80
2021/12/03 05:37:38;;;;;;;9.05;4.63;;;;;;;;;;4259647;27;20118;-79
2021/12/03 05:39:39;;;;;;;9.18;4.93;;;;;;;;;;4243324;28;20060;-80
2021/12/03 05:41:41;;;;;;;8.32;4.85;;;;;;;;;;4242388;28;20056;-79
2021/12/03 05:43:43;;;;;;;11.73;4.85;;;;;;;;;;4265216;27;20296;-80
2021/12/03 05:45:44;;;;;;;15.98;5.72;;;;;;;;;;4255264;27;20043;-80
2021/12/03 05:47:45;;;;;;;14.00;5.38;;;;;;;;;;4234237;28;20538;-81
2021/12/03 05:49:46;;;;;;;7.90;4.85;;;;;;;;;;4237794;27;20043;-79
2021/12/03 05:51:48;;;;;;;8.93;4.78;;;;;;;;;;4268911;27;20506;-80
2021/12/03 05:53:50;;;;;;;11.80;5.82;;;;;;;;;;4269033;27;20539;-80
2021/12/03 05:55:53;;;;;;;8.07;5.05;;;;;;;;;;4240989;27;20468;-80
2021/12/03 05:57:55;;;;;;;10.57;5.20;;;;;;;;;;4233672;28;20091;-81
2021/12/03 05:59:56;;;;;;;7.53;4.75;;;;;;;;;;4233878;28;20118;-81
2021/12/03 06:01:57;;;;;;;7.97;4.38;;;;;;;;;;4267055;27;20325;-81
2021/12/03 06:04:00;;;;;;;11.98;4.90;;;;;;;;;;4250645;27;20212;-81
2021/12/03 06:06:01;;;;;;;11.52;5.18;;;;;;;;;;4233784;28;20147;-80
2021/12/03 06:08:03;;;;;;;11.52;5.05;;;;;;;;;;4263966;27;20049;-80
2021/12/03 06:10:05;;;;;;;10.90;5.07;;;;;;;;;;4237948;27;20036;-80
2021/12/03 06:12:07;;;;;;;7.75;4.88;;;;;;;;;;4251192;27;20083;-81
2021/12/03 06:14:09;;;;;;;8.93;5.07;;;;;;;;;;4252281;27;20050;-80
2021/12/03 06:16:11;;;;;;;10.63;5.32;;;;;;;;;;4252538;27;20088;-82
2021/12/03 06:18:12;;;;;;;7.63;5.03;;;;;;;;;;4216583;28;20048;-81
2021/12/03 06:20:16;;;;;;;8.88;5.00;;;;;;;;;;4256046;27;20073;-80
2021/12/03 06:22:17;;;;;;;9.88;5.28;;;;;;;;;;4260091;27;20094;-81
2021/12/03 06:24:19;;;;;;;12.02;5.30;;;;;;;;;;4233165;28;20435;-81
2021/12/03 06:26:20;;;;;;;10.23;4.75;;;;;;;;;;4228892;28;20048;-81
2021/12/03 06:28:25;;;;;;;11.63;5.20;;;;;;;;;;4269196;27;20380;-81
2021/12/03 06:30:27;;;;;;;13.73;5.68;;;;;;;;;;4232742;28;20134;-81
2021/12/03 06:32:29;;;;;;;12.13;5.80;;;;;;;;;;4253332;27;20047;-81
2021/12/03 06:34:31;;;;;;;11.40;6.35;;;;;;;;;;4250971;27;20039;-80
2021/12/03 06:36:33;;;;;;;13.95;5.47;;;;;;;;;;4252466;27;20047;-81
2021/12/03 06:38:38;;;;;;;12.07;5.68;;;;;;;;;;4248239;27;20050;-82
2021/12/03 06:40:39;;;;;;;7.88;5.28;;;;;;;;;;4249234;27;20093;-80
2021/12/03 06:42:41;;;;;;;14.73;5.25;;;;;;;;;;4258517;27;20043;-81
2021/12/03 06:44:42;;;;;;;9.63;5.60;;;;;;;;;;4237705;27;20570;-79
2021/12/03 06:46:43;;;;;;;10.30;5.45;;;;;;;;;;4260867;27;20043;-79
2021/12/03 06:48:47;;;;;;;14.20;5.25;;;;;;;;;;4233529;28;20046;-79
2021/12/03 06:50:49;;;;;;;12.95;5.63;;;;;;;;;;4268232;27;20142;-80
2021/12/03 06:52:58;;;;;;;12.65;5.72;;;;;;;;;;4269272;27;20035;-80
2021/12/03 06:55:03;;;;;;;11.20;5.40;;;;;;;;;;4266969;27;20047;-80
2021/12/03 06:57:05;;;;;;;10.23;5.38;;;;;;;;;;4252108;27;20074;-81
2021/12/03 06:59:07;;;;;;;10.45;5.03;;;;;;;;;;4260281;27;20069;-81
2021/12/03 07:01:09;;;;;;;12.43;5.40;;;;;;;;;;4250505;27;20050;-81
2021/12/03 07:03:10;;;;;;;11.43;5.43;;;;;;;;;;4267807;27;20038;-81
2021/12/03 07:05:13;;;;;;;12.00;4.95;;;;;;;;;;4267231;27;20046;-81
2021/12/03 07:07:18;;;;;;;12.02;5.43;;;;;;;;;;4264470;27;20387;-81
2021/12/03 07:09:19;;;;;;;14.73;5.53;;;;;;;;;;4255565;27;20039;-81
2021/12/03 07:11:20;;;;;;;13.93;5.60;;;;;;;;;;4233018;28;20043;-81
2021/12/03 07:13:21;;;;;;;10.32;4.93;;;;;;;;;;4233168;28;20161;-81
2021/12/03 07:15:23;;;;;;;9.82;5.03;;;;;;;;;;4233192;27;20102;-81
2021/12/03 07:17:32;;;;;;;8.63;4.00;;;;;;;;;;4236771;27;20047;-81
2021/12/03 07:19:34;;;;;;;7.78;3.75;;;;;;;;;;4240256;27;20104;-81
2021/12/03 07:21:36;;;;;;;11.13;4.38;;;;;;;;;;4234592;28;20039;-81
2021/12/03 07:23:37;;;;;;;10.23;4.40;;;;;;;;;;4249761;27;20043;-81
2021/12/03 07:25:38;;;;;;;8.27;4.28;;;;;;;;;;4242940;27;20577;-82
2021/12/03 07:27:40;;;;;;;11.52;4.05;;;;;;;;;;4244339;27;20078;-82
2021/12/03 07:29:47;;;;;;;8.35;4.43;;;;;;;;;;4239206;27;20052;-81
2021/12/03 07:31:49;;;;;;;11.27;4.20;;;;;;;;;;4233297;28;20062;-82
2021/12/03 07:33:54;;;;;;;8.35;3.90;;;;;;;;;;4231928;28;20153;-81
2021/12/03 07:35:55;;;;;;;8.10;3.40;;;;;;;;;;4232030;28;20032;-81
2021/12/03 07:37:56;;;;;;;7.10;3.53;;;;;;;;;;4226012;28;20058;-81
2021/12/03 07:40:03;;;;;;;7.50;3.47;;;;;;;;;;4250898;27;20500;-81
2021/12/03 07:42:05;;;;;;;7.82;3.75;;;;;;;;;;4235852;28;20568;-81
2021/12/03 07:44:08;;;;;;;11.27;3.65;;;;;;;;;;4251594;27;20043;-82
2021/12/03 07:46:09;;;;;;;6.68;3.28;;;;;;;;;;4237817;27;20054;-81
2021/12/03 07:48:10;;;;;;;8.60;4.15;;;;;;;;;;4245739;27;20050;-84
2021/12/03 07:50:12;;;;;;;5.47;3.00;;;;;;;;;;4222560;28;20542;-81
2021/12/03 07:52:15;;;;;;;9.25;2.80;;;;;;;;;;4234420;28;20044;-81
2021/12/03 07:54:17;;;;;;;6.57;2.92;;;;;;;;;;4231722;28;20056;-81
2021/12/03 07:56:18;;;;;;;8.07;2.90;;;;;;;;;;4246427;27;20082;-88
2021/12/03 07:58:21;;;;;;;7.25;2.58;;;;;;;;;;4230822;28;20207;-79
2021/12/03 08:00:23;;;;;;;7.80;3.30;;;;;;;;;;4244566;27;20047;-80
2021/12/03 08:02:26;;;;;;;7.90;3.13;;;;;;;;;;4240616;27;20043;-79
2021/12/03 08:04:27;;;;;;;14.43;4.47;;;;;;;;;;4236486;27;20058;-79
2021/12/03 08:06:31;;;;;;;4.07;2.53;;;;;;;;;;4237562;27;20039;-80
2021/12/03 08:08:32;;;;;;;8.18;2.30;;;;;;;;;;4231344;28;20506;-81
2021/12/03 08:10:37;;;;;;;5.13;2.63;;;;;;;;;;4231289;28;20525;-82
2021/12/03 08:12:41;;;;;;;3.03;2.10;;;;;;;;;;4231318;28;20518;-81
2021/12/03 08:14:43;;;;;;;4.63;1.95;;;;;;;;;;4232125;28;20043;-82
2021/12/03 08:16:54;;;;;;;7.75;2.58;;;;;;;;;;4234738;28;20036;-89
2021/12/03 08:18:55;;;;;;;5.60;2.38;;;;;;;;;;4218883;28;20440;-85
2021/12/03 08:20:57;;;;;;;6.55;2.50;;;;;;;;;;4249912;27;20051;-80
2021/12/03 08:22:58;;;;;;;7.65;2.15;;;;;;;;;;4247578;27;20057;-79
2021/12/03 08:25:00;;;;;;;7.43;2.15;;;;;;;;;;4247023;27;20096;-80
2021/12/03 08:27:01;;;;;;;3.92;1.88;;;;;;;;;;4232632;28;20052;-80
2021/12/03 08:29:04;;;;;;;6.30;2.00;;;;;;;;;;4233140;27;20172;-83
2021/12/03 08:31:05;;;;;;;4.95;2.45;;;;;;;;;;4248849;27;20149;-82
2021/12/03 08:33:09;;;;;;;6.00;1.92;;;;;;;;;;4249532;27;20070;-83
2021/12/03 08:35:10;;;;;;;9.07;1.92;;;;;;;;;;4262589;27;20046;-82
2021/12/03 08:37:12;;;;;;;7.72;2.00;;;;;;;;;;4263492;27;20118;-82
2021/12/03 08:39:14;;;;;;;7.07;2.08;;;;;;;;;;4258818;27;20046;-82
2021/12/03 08:41:17;;;;;;;5.25;2.30;;;;;;;;;;4251002;27;20039;-83
2021/12/03 08:43:18;;;;;;;10.88;2.40;;;;;;;;;;4263507;27;20050;-82
2021/12/03 08:45:21;;;;;;;6.03;1.83;;;;;;;;;;4266454;27;20070;-83
2021/12/03 08:47:22;;;;;;;7.07;1.70;;;;;;;;;;4266083;27;20121;-83
2021/12/03 08:51:52;;;;;;;3.83;2.15;;;;;;;;;;4230430;28;20059;-82
2021/12/03 08:56:12;;;;;;;5.93;2.10;;;;;;;;;;4230496;28;20051;-82
2021/12/03 08:58:14;;;;;;;10.30;2.28;;;;;;;;;;4230855;28;20051;-83
2021/12/03 09:00:19;;;;;;;8.05;2.13;;;;;;;;;;4230731;28;20135;-83
2021/12/03 09:02:20;;;;;;;7.65;2.78;;;;;;;;;;4230604;28;20043;-83
2021/12/03 09:04:21;;;;;;;6.18;2.10;;;;;;;;;;4248907;27;20043;-82
2021/12/03 09:06:23;;;;;;;8.90;2.58;;;;;;;;;;4248921;27;20122;-82
2021/12/03 09:08:26;;;;;;;12.90;2.20;;;;;;;;;;4249019;27;20047;-82
2021/12/03 09:10:29;;;;;;;6.93;2.33;;;;;;;;;;4256557;27;20048;-82
2021/12/03 09:12:30;;;;;;;9.68;3.78;;;;;;;;;;4267788;27;20039;-82
2021/12/03 09:14:57;;;;;;;6.57;3.00;;;;;;;;;;4247452;27;20100;-81
2021/12/03 09:17:16;;;;;;;13.45;2.83;;;;;;;;;;4247553;27;20062;-82
2021/12/03 09:19:25;;;;;;;;;;;;;;;;;;4245414;27;20463;-83
2021/12/03 09:21:29;;;;;;;7.68;2.90;;;;;;;;;;4216208;28;19971;-82
2021/12/03 09:23:56;;;;;;;5.82;2.20;;;;;;;;;;4249015;28;20086;-82
2021/12/03 09:26:05;;;;;;;15.15;3.58;;;;;;;;;;4222969;28;20255;-83
2021/12/03 09:28:12;;;;;;;10.65;3.42;;;;;;;;;;4267972;27;20068;-82
2021/12/03 09:30:14;;;;;;;6.95;3.00;;;;;;;;;;4265223;27;20122;-82
2021/12/03 09:32:22;;;;;;;7.35;2.70;;;;;;;;;;4229798;28;20043;-83
2021/12/03 09:34:24;;;;;;;9.32;3.42;;;;;;;;;;4246287;28;20047;-82
2021/12/03 09:36:28;;;;;;;6.45;3.25;;;;;;;;;;4265616;27;20047;-82
2021/12/03 09:38:36;;;;;;;11.60;3.15;;;;;;;;;;4217435;28;20047;-82
2021/12/03 09:40:38;;;;;;;9.57;4.28;;;;;;;;;;4230426;28;20051;-82
2021/12/03 09:42:39;;;;;;;10.73;4.00;;;;;;;;;;4248622;28;20063;-82
2021/12/03 09:44:43;;;;;;;12.90;3.75;;;;;;;;;;4264628;27;20035;-82
2021/12/03 09:46:45;;;;;;;13.63;4.28;;;;;;;;;;4247490;28;20055;-82
2021/12/03 09:51:03;;;;;;;10.40;4.00;;;;;;;;;;4230051;28;20048;-83
2021/12/03 09:55:11;;;;;;;10.93;4.57;;;;;;;;;;4230129;28;20059;-83
2021/12/03 09:57:34;;;;;;;8.80;4.82;;;;;;;;;;4229897;28;20044;-83
2021/12/03 10:02:01;;;;;;;17.13;4.90;;;;;;;;;;4230037;28;20047;-82
2021/12/03 10:13:54;;;;;;;12.15;4.95;;;;;;;;;;4233860;28;20506;-81
2021/12/03 10:18:43;;;;;;;12.13;4.53;;;;;;;;;;4194824;28;20119;-82
2021/12/03 10:20:59;;;;;;;13.05;5.05;;;;;;;;;;4238787;27;20139;-81
2021/12/03 10:39:00;;;;;;;15.05;5.50;;;;;;;;;;4232190;28;20051;-83
2021/12/03 10:45:35;;;;;;;13.27;4.50;;;;;;;;;;4270047;27;20543;-82
2021/12/03 10:49:57;;;;;;;12.88;4.22;;;;;;;;;;4248756;27;20107;-82
2021/12/03 10:52:20;;;;;;;16.45;4.20;;;;;;;;;;4268064;27;20110;-83
2021/12/03 12:00:02;;;;;;;10.55;3.88;;;;;;;;;;4231140;28;20044;-82
2021/12/03 12:16:48;;;;;;;10.15;2.75;;;;;;;;;;4231915;27;20448;-82
2021/12/03 12:33:08;;;;;;;6.55;1.95;;;;;;;;;;4242908;27;20054;-82
2021/12/03 12:45:33;;;;;;;7.47;3.03;;;;;;;;;;4278744;27;20042;-83
2021/12/03 13:02:52;;;;;;;10.90;3.90;;;;;;;;;;4233656;27;20047;-83
2021/12/03 13:05:23;;;;;;;6.65;2.70;;;;;;;;;;4244940;27;20047;-83
2021/12/03 13:29:38;;;;;;;4.47;3.40;;;;;;;;;;4248446;28;20043;-83
2021/12/03 14:38:47;;;;;;;5.43;2.25;;;;;;;;;;4245606;27;20414;-81
2021/12/03 14:41:04;;;;;;;5.75;2.67;;;;;;;;;;4268013;27;20043;-82
2021/12/03 14:43:24;;;;;;;3.25;2.03;;;;;;;;;;4248897;27;20055;-83
2021/12/03 14:45:43;;;;;;;9.07;2.80;;;;;;;;;;4268296;27;20051;-83
2021/12/03 14:48:07;;;;;;;;;;;;;;;;;;4267263;27;20042;-83
2021/12/03 14:50:46;;;;;;;4.78;1.92;;;;;;;;;;4237257;27;20014;-83
2021/12/03 14:52:58;;;;;;;;;;;;;;;;;;4215368;28;20044;-83
2021/12/03 14:55:09;;;;;;;8.45;3.08;;;;;;;;;;4231497;28;19943;-84
2021/12/03 14:57:15;;;;;;;9.45;2.40;;;;;;;;;;4215356;28;20048;-84
2021/12/03 14:59:21;;;;;;;7.50;2.33;;;;;;;;;;4231742;28;20055;-83
2021/12/03 15:08:04;;;;;;;6.53;2.10;;;;;;;;;;4249827;27;20043;-83
2021/12/03 15:10:10;;;;;;;8.50;2.60;;;;;;;;;;4232026;28;20491;-83
2021/12/03 15:23:58;;;;;;;3.95;2.53;;;;;;;;;;4249073;27;20576;-83
2021/12/03 15:26:04;;;;;;;6.53;2.60;;;;;;;;;;4249275;27;20104;-83
2021/12/03 15:33:07;;;;;;;9.07;3.45;;;;;;;;;;4248841;27;20055;-83
2021/12/03 15:39:08;;;;;;;4.97;2.53;;;;;;;;;;4249703;27;20555;-82
2021/12/03 15:57:19;;;;;;;11.18;3.85;;;;;;;;;;4249592;27;20150;-82
2021/12/03 16:04:44;;;;;;;7.82;4.53;;;;;;;;;;4248500;27;20043;-82
2021/12/03 16:06:31;;;;;;;8.68;4.20;;;;;;;;;;4224199;28;20077;-82
2021/12/03 16:08:39;;;;;;;8.43;3.55;;;;;;;;;;4230298;28;20495;-82
2021/12/03 16:17:19;;;;;;;8.25;4.93;;;;;;;;;;4229849;28;20040;-83
2021/12/03 16:22:07;;;;;;;8.20;4.63;;;;;;;;;;4248709;27;20082;-82
2021/12/03 16:51:53;;;;;;;7.25;4.85;;;;;;;;;;4264784;27;20082;-82
2021/12/03 16:54:04;;;;;;;7.07;4.28;;;;;;;;;;4265620;27;20043;-82
2021/12/03 16:56:10;;;;;;;8.27;4.78;;;;;;;;;;4264993;27;20556;-82
2021/12/03 16:58:11;;;;;;;9.70;5.47;;;;;;;;;;4265352;27;20154;-83
2021/12/03 17:02:32;;;;;;;8.77;4.47;;;;;;;;;;4264967;27;20046;-83
2021/12/03 17:14:34;;;;;;;11.80;5.22;;;;;;;;;;4248301;27;20054;-82
2021/12/03 17:30:32;;;;;;;10.73;5.07;;;;;;;;;;4229443;28;20048;-82
2021/12/03 17:59:51;;;;;;;10.27;5.50;;;;;;;;;;4247717;28;20047;-82
2021/12/03 18:02:19;;;;;;;10.65;5.22;;;;;;;;;;4247459;27;20043;-82
2021/12/03 18:04:40;;;;;;;9.85;4.82;;;;;;;;;;4229643;28;20126;-82
2021/12/03 18:11:30;;;;;;;10.02;5.57;;;;;;;;;;4247479;28;20126;-82
2021/12/03 18:16:00;;;;;;;8.43;4.85;;;;;;;;;;4229200;28;20765;-82
2021/12/03 18:54:23;;;;;;;12.90;6.13;;;;;;;;;;4267365;27;20043;-83
2021/12/03 18:56:43;;;;;;;11.48;5.28;;;;;;;;;;4248063;27;20126;-83
2021/12/03 18:58:44;;;;;;;13.02;5.82;;;;;;;;;;4250635;27;20083;-82
2021/12/03 19:00:47;;;;;;;15.05;6.15;;;;;;;;;;4267549;27;20564;-82
2021/12/03 19:02:50;;;;;;;14.48;6.47;;;;;;;;;;4231326;28;20416;-82
2021/12/03 19:09:07;;;;;;;14.98;6.78;;;;;;;;;;4249318;27;20051;-82
2021/12/03 19:11:16;;;;;;;14.98;6.32;;;;;;;;;;4249314;27;20051;-82
2021/12/03 19:13:26;;;;;;;15.73;6.63;;;;;;;;;;4263301;27;20367;-82
2021/12/03 19:15:27;;;;;;;16.63;7.72;;;;;;;;;;4251902;27;20050;-82
2021/12/03 19:17:35;;;;;;;14.38;6.72;;;;;;;;;;4249519;27;20047;-82
2021/12/03 19:19:44;;;;;;;15.07;6.80;;;;;;;;;;4249074;27;20406;-82
2021/12/03 19:21:48;;;;;;;17.23;6.70;;;;;;;;;;4249173;27;20054;-82
2021/12/03 19:23:57;;;;;;;14.25;7.03;;;;;;;;;;4249153;27;20039;-82
2021/12/03 19:25:58;;;;;;;13.93;6.35;;;;;;;;;;4249002;27;20035;-82
2021/12/03 19:28:00;;;;;;;15.50;7.85;;;;;;;;;;4249046;27;20490;-82
2021/12/03 19:30:03;;;;;;;14.90;7.38;;;;;;;;;;4231032;28;20116;-82
2021/12/03 19:32:05;;;;;;;18.25;8.13;;;;;;;;;;4214354;28;20044;-82
2021/12/03 19:34:08;;;;;;;17.52;8.25;;;;;;;;;;4231543;28;20043;-82
2021/12/03 19:36:11;;;;;;;16.02;7.45;;;;;;;;;;4231964;28;20097;-82
2021/12/03 19:38:14;;;;;;;16.98;7.72;;;;;;;;;;4239213;28;20044;-81
2021/12/03 19:40:15;;;;;;;17.25;7.70;;;;;;;;;;4260950;27;20051;-82
2021/12/03 19:42:22;;;;;;;20.25;7.97;;;;;;;;;;4258292;27;20047;-82